createdAt,value
2022-10-17T00:00:31.888Z,0.00
2022-10-17T00:01:31.910Z,0.00
2022-10-17T00:02:31.784Z,0.00
2022-10-17T00:03:31.735Z,0.00
2022-10-17T00:04:31.752Z,0.00
2022-10-17T00:05:31.634Z,0.00
2022-10-17T00:06:31.585Z,0.00
2022-10-17T00:07:31.576Z,0.00
2022-10-17T00:08:31.496Z,0.00
2022-10-17T00:09:31.437Z,0.00
2022-10-17T00:10:31.391Z,0.00
2022-10-17T00:11:31.333Z,0.00
2022-10-17T00:12:31.283Z,0.00
2022-10-17T00:13:31.228Z,0.00
2022-10-17T00:14:31.194Z,0.00
2022-10-17T00:15:31.126Z,0.00
2022-10-17T00:16:31.071Z,0.00
2022-10-17T00:17:31.228Z,0.00
2022-10-17T00:18:30.974Z,0.00
2022-10-17T00:19:30.944Z,0.00
2022-10-17T00:20:30.888Z,0.00
2022-10-17T00:21:30.823Z,0.00
2022-10-17T00:22:30.813Z,0.00
2022-10-17T00:23:30.740Z,0.00
2022-10-17T00:24:30.686Z,0.00
2022-10-17T00:25:30.621Z,0.00
2022-10-17T00:26:30.569Z,0.00
2022-10-17T00:27:30.815Z,0.00
2022-10-17T00:28:30.501Z,0.00
2022-10-17T00:29:30.430Z,0.00
2022-10-17T00:30:30.367Z,0.00
2022-10-17T00:31:30.310Z,0.00
2022-10-17T00:32:30.561Z,0.00
2022-10-17T00:33:30.211Z,0.00
2022-10-17T00:34:30.175Z,0.00
2022-10-17T00:35:30.107Z,0.00
2022-10-17T00:36:30.085Z,0.00
2022-10-17T00:37:30.004Z,0.00
2022-10-17T00:38:29.951Z,0.00
2022-10-17T00:39:29.924Z,0.00
2022-10-17T00:40:29.855Z,0.00
2022-10-17T00:41:29.801Z,0.00
2022-10-17T00:42:30.187Z,0.00
2022-10-17T00:43:29.706Z,0.00
2022-10-17T00:44:29.671Z,0.00
2022-10-17T00:45:29.617Z,0.00
2022-10-17T00:46:29.548Z,0.00
2022-10-17T00:47:29.515Z,0.00
2022-10-17T00:48:29.467Z,0.00
2022-10-17T00:49:29.398Z,0.00
2022-10-17T00:50:29.344Z,0.00
2022-10-17T00:51:29.310Z,0.00
2022-10-17T00:52:29.535Z,0.00
2022-10-17T00:53:29.192Z,0.00
2022-10-17T00:54:29.156Z,0.00
2022-10-17T00:55:29.108Z,0.00
2022-10-17T00:56:29.038Z,0.00
2022-10-17T00:57:29.001Z,0.00
2022-10-17T00:58:28.936Z,0.00
2022-10-17T00:59:28.888Z,0.00
2022-10-17T01:00:28.873Z,0.00
2022-10-17T01:01:28.846Z,0.00
2022-10-17T01:02:29.063Z,0.00
2022-10-17T01:03:28.681Z,0.00
2022-10-17T01:04:28.655Z,0.00
2022-10-17T01:05:28.580Z,0.00
2022-10-17T01:06:28.547Z,0.00
2022-10-17T01:07:31.928Z,0.00
2022-10-17T01:08:28.432Z,0.00
2022-10-17T01:09:28.383Z,0.00
2022-10-17T01:10:28.338Z,0.00
2022-10-17T01:11:28.305Z,0.00
2022-10-17T01:12:28.530Z,0.00
2022-10-17T01:13:28.188Z,0.00
2022-10-17T01:14:28.139Z,0.00
2022-10-17T01:15:28.072Z,0.00
2022-10-17T01:16:28.021Z,0.00
2022-10-17T01:17:27.988Z,0.00
2022-10-17T01:18:27.922Z,0.00
2022-10-17T01:19:27.873Z,0.00
2022-10-17T01:20:27.816Z,0.00
2022-10-17T01:21:27.770Z,0.00
2022-10-17T01:22:28.030Z,0.00
2022-10-17T01:23:27.664Z,0.00
2022-10-17T01:24:27.617Z,0.00
2022-10-17T01:25:27.563Z,0.00
2022-10-17T01:26:27.511Z,0.00
2022-10-17T01:27:27.478Z,0.00
2022-10-17T01:28:27.569Z,0.00
2022-10-17T01:29:27.355Z,0.00
2022-10-17T01:30:27.326Z,0.00
2022-10-17T01:31:27.281Z,0.00
2022-10-17T01:32:27.424Z,0.00
2022-10-17T01:33:27.170Z,0.00
2022-10-17T01:34:27.105Z,0.00
2022-10-17T01:35:27.070Z,0.00
2022-10-17T01:36:26.994Z,0.00
2022-10-17T01:37:26.948Z,0.00
2022-10-17T01:38:26.896Z,0.00
2022-10-17T01:39:29.363Z,0.00
2022-10-17T01:40:26.794Z,0.00
2022-10-17T01:41:26.757Z,0.00
2022-10-17T01:42:27.143Z,0.00
2022-10-17T01:43:26.642Z,0.00
2022-10-17T01:44:26.588Z,0.00
2022-10-17T01:45:26.541Z,0.00
2022-10-17T01:46:26.505Z,0.00
2022-10-17T01:47:26.845Z,0.00
2022-10-17T01:48:26.402Z,0.00
2022-10-17T01:49:26.332Z,0.00
2022-10-17T01:50:26.279Z,0.00
2022-10-17T01:51:26.232Z,0.00
2022-10-17T01:52:26.178Z,0.00
2022-10-17T01:53:26.154Z,0.00
2022-10-17T01:54:26.109Z,0.00
2022-10-17T01:55:26.021Z,0.00
2022-10-17T01:56:25.980Z,0.00
2022-10-17T01:57:26.144Z,0.00
2022-10-17T01:58:25.890Z,0.00
2022-10-17T01:59:25.838Z,0.00
2022-10-17T02:00:25.776Z,0.00
2022-10-17T02:01:25.741Z,0.00
2022-10-17T02:02:25.671Z,0.00
2022-10-17T02:03:25.619Z,0.00
2022-10-17T02:04:25.577Z,0.00
2022-10-17T02:05:25.537Z,0.00
2022-10-17T02:06:25.463Z,0.00
2022-10-17T02:07:25.605Z,0.00
2022-10-17T02:08:25.361Z,0.00
2022-10-17T02:09:25.304Z,0.00
2022-10-17T02:10:25.273Z,0.00
2022-10-17T02:11:25.203Z,0.00
2022-10-17T02:12:25.169Z,0.00
2022-10-17T02:13:25.096Z,0.00
2022-10-17T02:14:25.065Z,0.00
2022-10-17T02:15:24.997Z,0.00
2022-10-17T02:16:24.947Z,0.00
2022-10-17T02:17:25.073Z,0.00
2022-10-17T02:18:24.865Z,0.00
2022-10-17T02:19:24.797Z,0.00
2022-10-17T02:20:24.745Z,0.00
2022-10-17T02:21:24.693Z,0.00
2022-10-17T02:22:24.641Z,0.00
2022-10-17T02:23:24.611Z,0.00
2022-10-17T02:24:24.550Z,0.00
2022-10-17T02:25:24.488Z,0.00
2022-10-17T02:26:24.432Z,0.00
2022-10-17T02:27:24.394Z,0.00
2022-10-17T02:28:24.406Z,0.00
2022-10-17T02:29:24.296Z,0.00
2022-10-17T02:30:24.247Z,0.00
2022-10-17T02:31:24.181Z,0.00
2022-10-17T02:32:24.129Z,0.00
2022-10-17T02:33:24.083Z,0.00
2022-10-17T02:34:24.041Z,0.00
2022-10-17T02:35:23.977Z,0.00
2022-10-17T02:36:23.924Z,0.00
2022-10-17T02:37:23.869Z,0.00
2022-10-17T02:38:23.814Z,0.00
2022-10-17T02:39:23.781Z,0.00
2022-10-17T02:40:23.733Z,0.00
2022-10-17T02:41:23.723Z,0.00
2022-10-17T02:42:23.621Z,0.00
2022-10-17T02:43:23.565Z,0.00
2022-10-17T02:44:23.524Z,0.00
2022-10-17T02:45:23.457Z,0.00
2022-10-17T02:46:23.412Z,0.00
2022-10-17T02:47:23.357Z,0.00
2022-10-17T02:48:23.309Z,0.00
2022-10-17T02:49:23.269Z,0.00
2022-10-17T02:50:23.276Z,0.00
2022-10-17T02:51:23.151Z,0.00
2022-10-17T02:52:23.095Z,0.00
2022-10-17T02:53:23.046Z,0.00
2022-10-17T02:54:23.008Z,0.00
2022-10-17T02:55:22.953Z,0.00
2022-10-17T02:56:22.890Z,0.00
2022-10-17T02:57:22.844Z,0.00
2022-10-17T02:58:22.787Z,0.00
2022-10-17T02:59:22.816Z,0.00
2022-10-17T03:00:22.685Z,0.00
2022-10-17T03:01:22.696Z,0.00
2022-10-17T03:02:22.583Z,0.00
2022-10-17T03:03:22.535Z,0.00
2022-10-17T03:04:22.512Z,0.00
2022-10-17T03:05:22.431Z,0.00
2022-10-17T03:06:22.400Z,0.00
2022-10-17T03:07:22.324Z,0.00
2022-10-17T03:08:22.280Z,0.00
2022-10-17T03:09:22.226Z,0.00
2022-10-17T03:10:22.195Z,0.00
2022-10-17T03:11:22.123Z,0.00
2022-10-17T03:12:22.079Z,0.00
2022-10-17T03:13:22.037Z,0.00
2022-10-17T03:14:21.964Z,0.00
2022-10-17T03:15:21.921Z,0.00
2022-10-17T03:16:21.862Z,0.00
2022-10-17T03:17:21.831Z,0.00
2022-10-17T03:18:21.764Z,0.00
2022-10-17T03:19:21.717Z,0.00
2022-10-17T03:20:21.665Z,0.00
2022-10-17T03:21:21.614Z,0.00
2022-10-17T03:22:21.593Z,0.00
2022-10-17T03:23:21.507Z,0.00
2022-10-17T03:24:21.674Z,0.00
2022-10-17T03:25:21.396Z,0.00
2022-10-17T03:26:21.389Z,0.00
2022-10-17T03:27:21.294Z,0.00
2022-10-17T03:28:21.297Z,0.00
2022-10-17T03:29:21.312Z,0.00
2022-10-17T03:30:21.154Z,0.00
2022-10-17T03:31:21.094Z,0.00
2022-10-17T03:32:21.037Z,0.00
2022-10-17T03:33:20.991Z,0.00
2022-10-17T03:34:20.935Z,0.00
2022-10-17T03:35:20.915Z,0.00
2022-10-17T03:36:20.830Z,0.00
2022-10-17T03:37:20.789Z,0.00
2022-10-17T03:38:20.749Z,0.00
2022-10-17T03:39:20.680Z,0.00
2022-10-17T03:40:20.626Z,0.00
2022-10-17T03:41:20.594Z,0.00
2022-10-17T03:42:20.528Z,0.00
2022-10-17T03:43:20.470Z,0.00
2022-10-17T03:44:20.436Z,0.00
2022-10-17T03:45:20.374Z,0.00
2022-10-17T03:46:20.335Z,0.00
2022-10-17T03:47:20.270Z,0.00
2022-10-17T03:48:20.232Z,0.00
2022-10-17T03:49:20.165Z,0.00
2022-10-17T03:50:20.110Z,0.00
2022-10-17T03:51:20.080Z,0.00
2022-10-17T03:52:29.536Z,0.00
2022-10-17T03:53:19.958Z,0.00
2022-10-17T03:54:19.907Z,0.00
2022-10-17T03:55:19.852Z,0.00
2022-10-17T03:56:19.815Z,0.00
2022-10-17T03:57:19.749Z,0.00
2022-10-17T03:58:19.703Z,0.00
2022-10-17T03:59:19.647Z,0.00
2022-10-17T04:00:19.595Z,0.00
2022-10-17T04:01:19.590Z,0.00
2022-10-17T04:02:19.498Z,0.00
2022-10-17T04:03:19.439Z,0.00
2022-10-17T04:04:19.388Z,0.00
2022-10-17T04:05:19.359Z,0.00
2022-10-17T04:06:19.305Z,0.00
2022-10-17T04:07:19.249Z,0.00
2022-10-17T04:08:19.184Z,0.00
2022-10-17T04:09:19.977Z,0.00
2022-10-17T04:10:19.082Z,0.00
2022-10-17T04:11:19.048Z,0.00
2022-10-17T04:12:18.974Z,0.00
2022-10-17T04:13:18.922Z,0.00
2022-10-17T04:14:18.874Z,0.00
2022-10-17T04:15:18.835Z,0.00
2022-10-17T04:16:18.767Z,0.00
2022-10-17T04:17:18.724Z,0.00
2022-10-17T04:18:18.665Z,0.00
2022-10-17T04:19:18.617Z,0.00
2022-10-17T04:20:18.574Z,0.00
2022-10-17T04:21:18.511Z,0.00
2022-10-17T04:22:18.475Z,0.00
2022-10-17T04:23:18.407Z,0.00
2022-10-17T04:24:18.355Z,0.00
2022-10-17T04:25:18.317Z,0.00
2022-10-17T04:26:18.256Z,0.00
2022-10-17T04:27:18.205Z,0.00
2022-10-17T04:28:18.184Z,0.00
2022-10-17T04:29:18.102Z,0.00
2022-10-17T04:30:18.059Z,0.00
2022-10-17T04:31:17.994Z,0.00
2022-10-17T04:32:17.963Z,0.00
2022-10-17T04:33:17.891Z,0.00
2022-10-17T04:34:17.840Z,0.00
2022-10-17T04:35:17.801Z,0.00
2022-10-17T04:36:17.735Z,0.00
2022-10-17T04:37:17.680Z,0.00
2022-10-17T04:38:17.632Z,0.00
2022-10-17T04:39:17.579Z,0.00
2022-10-17T04:40:17.540Z,0.00
2022-10-17T04:41:17.493Z,0.00
2022-10-17T04:42:17.430Z,0.00
2022-10-17T04:43:17.390Z,0.00
2022-10-17T04:44:17.326Z,0.00
2022-10-17T04:45:17.265Z,0.00
2022-10-17T04:46:17.215Z,0.00
2022-10-17T04:47:17.189Z,0.00
2022-10-17T04:48:17.112Z,0.00
2022-10-17T04:49:17.077Z,0.00
2022-10-17T04:50:17.031Z,0.00
2022-10-17T04:51:16.961Z,0.00
2022-10-17T04:52:16.908Z,0.00
2022-10-17T04:53:16.854Z,0.00
2022-10-17T04:54:16.820Z,0.00
2022-10-17T04:55:16.751Z,0.00
2022-10-17T04:56:16.727Z,0.00
2022-10-17T04:57:16.648Z,0.00
2022-10-17T04:58:16.599Z,0.00
2022-10-17T04:59:16.571Z,0.00
2022-10-17T05:00:16.496Z,0.00
2022-10-17T05:01:16.485Z,0.00
2022-10-17T05:02:16.391Z,0.00
2022-10-17T05:03:16.342Z,0.00
2022-10-17T05:04:17.494Z,0.00
2022-10-17T05:05:16.251Z,0.00
2022-10-17T05:06:16.184Z,0.00
2022-10-17T05:07:16.130Z,0.00
2022-10-17T05:08:16.079Z,0.00
2022-10-17T05:09:16.028Z,0.00
2022-10-17T05:10:15.992Z,0.00
2022-10-17T05:11:15.925Z,0.00
2022-10-17T05:12:15.888Z,0.00
2022-10-17T05:13:15.825Z,0.00
2022-10-17T05:14:15.775Z,0.00
2022-10-17T05:15:15.716Z,0.00
2022-10-17T05:16:15.682Z,0.00
2022-10-17T05:17:15.615Z,0.00
2022-10-17T05:18:15.565Z,0.00
2022-10-17T05:19:15.511Z,0.00
2022-10-17T05:20:15.457Z,0.00
2022-10-17T05:21:15.423Z,0.00
2022-10-17T05:22:15.364Z,0.00
2022-10-17T05:23:15.298Z,0.00
2022-10-17T05:24:15.259Z,0.00
2022-10-17T05:25:15.214Z,0.00
2022-10-17T05:26:15.164Z,0.00
2022-10-17T05:27:15.099Z,0.00
2022-10-17T05:28:15.040Z,0.00
2022-10-17T05:29:14.993Z,0.00
2022-10-17T05:30:14.944Z,0.00
2022-10-17T05:31:14.906Z,0.00
2022-10-17T05:32:14.834Z,0.00
2022-10-17T05:33:14.803Z,0.00
2022-10-17T05:34:14.734Z,0.00
2022-10-17T05:35:14.680Z,0.00
2022-10-17T05:36:14.629Z,0.00
2022-10-17T05:37:14.575Z,0.00
2022-10-17T05:38:14.543Z,0.00
2022-10-17T05:39:14.490Z,5.63
2022-10-17T05:40:14.427Z,5.63
2022-10-17T05:41:14.371Z,5.63
2022-10-17T05:42:14.336Z,5.63
2022-10-17T05:43:14.271Z,5.63
2022-10-17T05:44:14.220Z,5.63
2022-10-17T05:45:14.170Z,5.63
2022-10-17T05:46:14.116Z,5.63
2022-10-17T05:47:14.083Z,5.63
2022-10-17T05:48:14.009Z,5.63
2022-10-17T05:49:19.556Z,11.25
2022-10-17T05:50:13.912Z,11.25
2022-10-17T05:51:13.857Z,11.25
2022-10-17T05:52:13.806Z,11.25
2022-10-17T05:53:13.772Z,11.25
2022-10-17T05:54:13.701Z,11.25
2022-10-17T05:55:13.679Z,11.25
2022-10-17T05:56:13.598Z,11.25
2022-10-17T05:57:13.551Z,11.25
2022-10-17T05:58:21.777Z,11.25
2022-10-17T05:59:13.457Z,16.88
2022-10-17T06:00:13.390Z,16.88
2022-10-17T06:01:13.343Z,16.88
2022-10-17T06:02:13.370Z,16.88
2022-10-17T06:03:13.260Z,16.88
2022-10-17T06:04:13.238Z,22.50
2022-10-17T06:05:13.136Z,22.50
2022-10-17T06:06:13.085Z,22.50
2022-10-17T06:07:13.033Z,22.50
2022-10-17T06:08:12.978Z,22.50
2022-10-17T06:09:12.928Z,22.50
2022-10-17T06:10:12.894Z,22.50
2022-10-17T06:11:12.827Z,22.50
2022-10-17T06:12:12.775Z,22.50
2022-10-17T06:13:12.722Z,28.13
2022-10-17T06:14:12.698Z,28.13
2022-10-17T06:15:12.622Z,28.13
2022-10-17T06:16:12.567Z,28.13
2022-10-17T06:17:15.985Z,28.13
2022-10-17T06:18:12.465Z,28.13
2022-10-17T06:19:12.414Z,33.75
2022-10-17T06:20:12.379Z,33.75
2022-10-17T06:21:12.316Z,33.75
2022-10-17T06:22:12.276Z,39.38
2022-10-17T06:23:12.208Z,39.38
2022-10-17T06:24:12.155Z,39.38
2022-10-17T06:25:12.114Z,45.00
2022-10-17T06:26:12.048Z,45.00
2022-10-17T06:27:12.245Z,45.00
2022-10-17T06:28:11.947Z,50.63
2022-10-17T06:29:11.940Z,50.63
2022-10-17T06:30:11.847Z,50.63
2022-10-17T06:31:11.801Z,56.25
2022-10-17T06:32:14.933Z,56.25
2022-10-17T06:33:11.704Z,61.88
2022-10-17T06:34:11.646Z,67.50
2022-10-17T06:35:11.608Z,73.13
2022-10-17T06:36:11.538Z,78.75
2022-10-17T06:37:11.516Z,84.38
2022-10-17T06:38:11.442Z,101.25
2022-10-17T06:39:11.380Z,106.88
2022-10-17T06:40:11.335Z,118.13
2022-10-17T06:41:11.311Z,129.38
2022-10-17T06:42:11.231Z,118.13
2022-10-17T06:43:11.182Z,118.13
2022-10-17T06:44:11.154Z,123.75
2022-10-17T06:45:11.104Z,140.63
2022-10-17T06:46:11.027Z,191.25
2022-10-17T06:47:10.977Z,556.88
2022-10-17T06:48:10.927Z,1063.13
2022-10-17T06:49:10.889Z,1327.50
2022-10-17T06:50:10.816Z,1440.00
2022-10-17T06:51:10.770Z,2137.50
2022-10-17T06:52:10.752Z,1912.50
2022-10-17T06:53:10.668Z,1957.50
2022-10-17T06:54:10.633Z,2458.13
2022-10-17T06:55:10.586Z,2711.25
2022-10-17T06:56:10.523Z,2784.38
2022-10-17T06:57:10.473Z,2632.50
2022-10-17T06:58:10.421Z,2503.13
2022-10-17T06:59:10.382Z,2818.13
2022-10-17T07:00:10.359Z,2677.50
2022-10-17T07:01:10.383Z,2615.63
2022-10-17T07:02:10.232Z,2908.13
2022-10-17T07:03:10.190Z,3054.38
2022-10-17T07:04:10.153Z,3065.63
2022-10-17T07:05:10.098Z,3172.50
2022-10-17T07:06:10.081Z,3245.63
2022-10-17T07:07:10.014Z,3245.63
2022-10-17T07:08:09.972Z,3256.88
2022-10-17T07:09:09.927Z,3228.75
2022-10-17T07:10:09.884Z,3262.50
2022-10-17T07:11:09.857Z,3251.25
2022-10-17T07:12:09.796Z,3330.00
2022-10-17T07:13:09.772Z,3155.63
2022-10-17T07:14:09.728Z,3110.63
2022-10-17T07:15:09.683Z,2823.75
2022-10-17T07:16:09.653Z,3043.13
2022-10-17T07:17:09.597Z,3065.63
2022-10-17T07:18:09.552Z,3251.25
2022-10-17T07:19:09.511Z,3217.50
2022-10-17T07:20:09.473Z,3493.13
2022-10-17T07:21:09.448Z,3448.13
2022-10-17T07:22:09.387Z,3583.13
2022-10-17T07:23:09.357Z,3555.00
2022-10-17T07:24:09.314Z,3538.13
2022-10-17T07:25:09.269Z,3279.38
2022-10-17T07:26:09.251Z,3318.75
2022-10-17T07:27:09.189Z,3510.00
2022-10-17T07:28:09.151Z,3678.75
2022-10-17T07:29:09.193Z,3740.63
2022-10-17T07:30:09.076Z,3988.13
2022-10-17T07:31:09.055Z,3425.63
2022-10-17T07:32:08.994Z,3240.00
2022-10-17T07:33:08.957Z,4061.25
2022-10-17T07:34:08.941Z,3954.38
2022-10-17T07:35:08.880Z,2880.00
2022-10-17T07:36:08.845Z,3290.63
2022-10-17T07:37:08.810Z,3943.13
2022-10-17T07:38:08.770Z,3690.00
2022-10-17T07:39:08.751Z,3616.88
2022-10-17T07:40:08.719Z,3926.25
2022-10-17T07:41:08.655Z,2880.00
2022-10-17T07:42:08.618Z,3695.63
2022-10-17T07:43:08.594Z,4050.00
2022-10-17T07:44:08.561Z,3825.00
2022-10-17T07:45:08.504Z,3988.13
2022-10-17T07:46:08.472Z,4207.50
2022-10-17T07:47:08.434Z,3791.25
2022-10-17T07:48:08.412Z,3926.25
2022-10-17T07:49:08.381Z,4083.75
2022-10-17T07:50:08.323Z,4336.88
2022-10-17T07:51:08.293Z,3971.25
2022-10-17T07:52:08.251Z,4078.13
2022-10-17T07:53:08.231Z,4162.50
2022-10-17T07:54:08.193Z,4387.50
2022-10-17T07:55:08.145Z,4449.38
2022-10-17T07:56:08.112Z,3802.50
2022-10-17T07:57:08.072Z,3836.25
2022-10-17T07:58:08.060Z,4156.88
2022-10-17T07:59:09.400Z,4230.00
2022-10-17T08:00:07.984Z,4190.63
2022-10-17T08:01:10.727Z,4005.00
2022-10-17T08:02:07.894Z,3943.13
2022-10-17T08:03:07.872Z,4005.00
2022-10-17T08:04:07.824Z,3999.38
2022-10-17T08:05:07.787Z,4010.63
2022-10-17T08:06:07.754Z,4038.75
2022-10-17T08:07:25.322Z,4320.00
2022-10-17T08:08:07.698Z,4224.38
2022-10-17T08:09:07.650Z,4275.00
2022-10-17T08:11:07.603Z,4275.00
2022-10-17T08:12:07.545Z,4314.38
2022-10-17T08:13:07.525Z,4258.13
2022-10-17T08:14:07.482Z,4449.38
2022-10-17T08:15:07.469Z,4393.13
2022-10-17T08:16:07.411Z,4505.63
2022-10-17T08:17:07.380Z,4353.75
2022-10-17T08:18:07.346Z,4072.50
2022-10-17T08:20:07.276Z,4224.38
2022-10-17T08:21:07.260Z,4415.63
2022-10-17T08:22:07.213Z,4376.25
2022-10-17T08:23:07.182Z,4280.63
2022-10-17T08:24:07.151Z,4258.13
2022-10-17T08:25:07.109Z,4477.50
2022-10-17T08:26:07.103Z,4792.50
2022-10-17T08:27:07.070Z,4078.13
2022-10-17T08:29:07.011Z,4033.13
2022-10-17T08:30:06.949Z,4033.13
2022-10-17T08:31:06.924Z,4162.50
2022-10-17T08:32:09.626Z,3920.63
2022-10-17T08:33:06.851Z,4117.50
2022-10-17T08:34:06.817Z,4196.25
2022-10-17T08:35:06.796Z,4123.13
2022-10-17T08:36:06.769Z,4151.25
2022-10-17T08:37:06.795Z,4359.38
2022-10-17T08:38:08.174Z,4668.75
2022-10-17T08:39:06.649Z,3195.00
2022-10-17T08:40:06.645Z,4286.25
2022-10-17T08:41:06.584Z,3982.50
2022-10-17T08:42:06.561Z,4443.75
2022-10-17T08:43:06.574Z,4196.25
2022-10-17T08:44:06.483Z,4516.88
2022-10-17T08:45:06.453Z,4275.00
2022-10-17T08:46:06.456Z,4410.00
2022-10-17T08:47:06.401Z,4438.13
2022-10-17T08:48:06.347Z,4477.50
2022-10-17T08:49:08.719Z,3189.38
2022-10-17T08:50:06.283Z,4185.00
2022-10-17T08:51:06.269Z,4196.25
2022-10-17T08:52:06.233Z,3673.13
2022-10-17T08:53:06.203Z,3380.63
2022-10-17T08:54:06.148Z,3746.25
2022-10-17T08:55:06.190Z,3605.63
2022-10-17T08:56:07.177Z,3414.38
2022-10-17T08:57:06.073Z,2739.38
2022-10-17T08:58:06.017Z,1732.50
2022-10-17T08:59:06.001Z,1170.00
2022-10-17T09:00:05.950Z,849.38
2022-10-17T09:01:10.408Z,770.63
2022-10-17T09:02:12.651Z,742.50
2022-10-17T09:03:12.677Z,720.00
2022-10-17T09:04:12.647Z,669.38
2022-10-17T09:05:05.786Z,658.13
2022-10-17T09:06:05.755Z,618.75
2022-10-17T09:07:05.721Z,641.25
2022-10-17T09:08:05.700Z,641.25
2022-10-17T09:09:05.652Z,635.63
2022-10-17T09:10:05.635Z,607.50
2022-10-17T09:11:05.580Z,596.25
2022-10-17T09:12:05.545Z,596.25
2022-10-17T09:13:07.819Z,613.13
2022-10-17T09:14:05.495Z,596.25
2022-10-17T09:15:05.462Z,596.25
2022-10-17T09:16:06.157Z,590.63
2022-10-17T09:17:05.385Z,579.38
2022-10-17T09:18:05.361Z,562.50
2022-10-17T09:19:05.311Z,562.50
2022-10-17T09:20:05.279Z,556.88
2022-10-17T09:21:05.238Z,556.88
2022-10-17T09:22:05.207Z,556.88
2022-10-17T09:23:05.295Z,545.63
2022-10-17T09:24:09.694Z,545.63
2022-10-17T09:25:05.139Z,517.50
2022-10-17T09:26:05.079Z,528.75
2022-10-17T09:27:05.044Z,540.00
2022-10-17T09:28:05.004Z,551.25
2022-10-17T09:29:04.990Z,545.63
2022-10-17T09:30:07.150Z,551.25
2022-10-17T09:31:04.885Z,545.63
2022-10-17T09:32:04.858Z,556.88
2022-10-17T09:33:04.811Z,534.38
2022-10-17T09:34:04.771Z,517.50
2022-10-17T09:35:04.754Z,483.75
2022-10-17T09:36:04.728Z,495.00
2022-10-17T09:37:04.660Z,483.75
2022-10-17T09:38:04.628Z,461.25
2022-10-17T09:39:04.589Z,478.13
2022-10-17T09:40:04.576Z,489.38
2022-10-17T09:41:12.056Z,495.00
2022-10-17T09:42:04.472Z,500.63
2022-10-17T09:43:04.433Z,511.88
2022-10-17T09:44:04.391Z,500.63
2022-10-17T09:45:04.368Z,489.38
2022-10-17T09:46:04.319Z,466.88
2022-10-17T09:47:04.302Z,466.88
2022-10-17T09:48:04.241Z,450.00
2022-10-17T09:49:04.205Z,433.13
2022-10-17T09:50:04.160Z,416.25
2022-10-17T09:51:15.178Z,416.25
2022-10-17T09:52:04.081Z,427.50
2022-10-17T09:53:04.054Z,405.00
2022-10-17T09:54:04.023Z,421.88
2022-10-17T09:55:03.985Z,438.75
2022-10-17T09:56:03.921Z,427.50
2022-10-17T09:57:03.882Z,427.50
2022-10-17T09:58:03.845Z,433.13
2022-10-17T09:59:03.820Z,450.00
2022-10-17T10:00:03.885Z,461.25
2022-10-17T10:01:03.764Z,472.50
2022-10-17T10:02:03.699Z,483.75
2022-10-17T10:03:03.641Z,472.50
2022-10-17T10:04:03.598Z,483.75
2022-10-17T10:05:05.177Z,455.63
2022-10-17T10:06:03.532Z,461.25
2022-10-17T10:07:03.546Z,472.50
2022-10-17T10:08:03.459Z,483.75
2022-10-17T10:09:03.400Z,500.63
2022-10-17T10:10:03.358Z,511.88
2022-10-17T10:11:03.316Z,523.13
2022-10-17T10:12:03.290Z,528.75
2022-10-17T10:13:03.234Z,528.75
2022-10-17T10:14:03.192Z,523.13
2022-10-17T10:15:03.164Z,528.75
2022-10-17T10:16:03.113Z,523.13
2022-10-17T10:17:03.065Z,534.38
2022-10-17T10:18:03.024Z,500.63
2022-10-17T10:19:05.852Z,489.38
2022-10-17T10:20:02.939Z,455.63
2022-10-17T10:21:02.911Z,421.88
2022-10-17T10:22:02.863Z,438.75
2022-10-17T10:23:02.838Z,450.00
2022-10-17T10:24:02.799Z,438.75
2022-10-17T10:25:02.743Z,444.38
2022-10-17T10:26:02.710Z,438.75
2022-10-17T10:27:02.654Z,433.13
2022-10-17T10:28:02.609Z,410.63
2022-10-17T10:29:02.653Z,399.38
2022-10-17T10:30:02.527Z,393.75
2022-10-17T10:31:02.510Z,360.00
2022-10-17T10:32:02.461Z,354.38
2022-10-17T10:33:02.400Z,371.25
2022-10-17T10:34:02.362Z,354.38
2022-10-17T10:35:02.317Z,337.50
2022-10-17T10:36:02.306Z,348.75
2022-10-17T10:37:02.236Z,348.75
2022-10-17T10:38:02.183Z,337.50
2022-10-17T10:39:04.005Z,348.75
2022-10-17T10:40:02.123Z,371.25
2022-10-17T10:41:02.063Z,371.25
2022-10-17T10:42:02.042Z,376.88
2022-10-17T10:43:05.437Z,388.13
2022-10-17T10:44:01.933Z,354.38
2022-10-17T10:45:01.887Z,382.50
2022-10-17T10:46:01.843Z,399.38
2022-10-17T10:47:01.831Z,405.00
2022-10-17T10:48:01.764Z,416.25
2022-10-17T10:49:01.717Z,382.50
2022-10-17T10:50:01.675Z,416.25
2022-10-17T10:51:01.627Z,433.13
2022-10-17T10:52:01.615Z,410.63
2022-10-17T10:53:01.545Z,444.38
2022-10-17T10:54:01.529Z,444.38
2022-10-17T10:55:01.458Z,421.88
2022-10-17T10:56:01.411Z,427.50
2022-10-17T10:57:01.398Z,427.50
2022-10-17T10:58:01.329Z,421.88
2022-10-17T10:59:01.286Z,421.88
2022-10-17T11:00:01.243Z,427.50
2022-10-17T11:01:01.340Z,427.50
2022-10-17T11:02:01.155Z,450.00
2022-10-17T11:03:01.910Z,444.38
2022-10-17T11:04:01.072Z,450.00
2022-10-17T11:05:01.028Z,438.75
2022-10-17T11:06:01.014Z,433.13
2022-10-17T11:07:00.956Z,433.13
2022-10-17T11:08:00.909Z,416.25
2022-10-17T11:09:00.877Z,393.75
2022-10-17T11:10:00.813Z,421.88
2022-10-17T11:11:00.771Z,416.25
2022-10-17T11:12:00.739Z,416.25
2022-10-17T11:13:00.684Z,421.88
2022-10-17T11:14:00.661Z,421.88
2022-10-17T11:15:00.604Z,416.25
2022-10-17T11:16:00.561Z,399.38
2022-10-17T11:17:00.513Z,405.00
2022-10-17T11:18:00.470Z,405.00
2022-10-17T11:19:00.455Z,427.50
2022-10-17T11:20:00.432Z,410.63
2022-10-17T11:21:00.341Z,405.00
2022-10-17T11:22:00.303Z,410.63
2022-10-17T11:23:00.258Z,405.00
2022-10-17T11:24:00.210Z,410.63
2022-10-17T11:25:00.200Z,393.75
2022-10-17T11:26:00.130Z,388.13
2022-10-17T11:27:00.088Z,388.13
2022-10-17T11:28:04.644Z,388.13
2022-10-17T11:29:00.096Z,382.50
2022-10-17T11:29:59.982Z,371.25
2022-10-17T11:31:01.411Z,365.63
2022-10-17T11:31:59.870Z,376.88
2022-10-17T11:32:59.902Z,371.25
2022-10-17T11:33:59.787Z,371.25
2022-10-17T11:34:59.748Z,371.25
2022-10-17T11:35:59.723Z,354.38
2022-10-17T11:36:59.655Z,354.38
2022-10-17T11:37:59.646Z,360.00
2022-10-17T11:38:59.578Z,360.00
2022-10-17T11:39:59.531Z,360.00
2022-10-17T11:40:59.532Z,348.75
2022-10-17T11:42:03.265Z,354.38
2022-10-17T11:42:59.403Z,348.75
2022-10-17T11:43:59.362Z,348.75
2022-10-17T11:44:59.325Z,320.63
2022-10-17T11:45:59.297Z,343.13
2022-10-17T11:46:59.232Z,343.13
2022-10-17T11:47:59.191Z,326.25
2022-10-17T11:48:59.164Z,326.25
2022-10-17T11:51:59.723Z,315.00
2022-10-17T11:52:00.948Z,303.75
2022-10-17T11:52:59.368Z,309.38
2022-10-17T11:53:58.934Z,326.25
2022-10-17T11:54:58.892Z,326.25
2022-10-17T11:55:58.894Z,326.25
2022-10-17T11:56:58.811Z,315.00
2022-10-17T11:57:58.765Z,309.38
2022-10-17T11:58:58.720Z,298.13
2022-10-17T11:59:58.680Z,303.75
2022-10-17T12:00:58.638Z,303.75
2022-10-17T12:01:58.632Z,303.75
2022-10-17T12:02:58.553Z,303.75
2022-10-17T12:03:58.574Z,303.75
2022-10-17T12:04:58.464Z,298.13
2022-10-17T12:05:58.425Z,298.13
2022-10-17T12:06:58.378Z,298.13
2022-10-17T12:07:58.370Z,286.88
2022-10-17T12:08:58.296Z,292.50
2022-10-17T12:09:58.805Z,286.88
2022-10-17T12:10:58.211Z,292.50
2022-10-17T12:11:58.164Z,286.88
2022-10-17T12:12:58.137Z,281.25
2022-10-17T12:13:58.083Z,275.63
2022-10-17T12:14:58.058Z,270.00
2022-10-17T12:15:58.021Z,270.00
2022-10-17T12:16:57.960Z,275.63
2022-10-17T12:17:57.911Z,281.25
2022-10-17T12:18:58.682Z,281.25
2022-10-17T12:19:57.841Z,281.25
2022-10-17T12:20:57.781Z,275.63
2022-10-17T12:21:57.753Z,275.63
2022-10-17T12:22:57.694Z,275.63
2022-10-17T12:23:57.651Z,275.63
2022-10-17T12:24:58.191Z,270.00
2022-10-17T12:26:01.121Z,270.00
2022-10-17T12:26:57.531Z,270.00
2022-10-17T12:27:57.478Z,264.38
2022-10-17T12:28:57.544Z,264.38
2022-10-17T12:29:57.399Z,264.38
2022-10-17T12:30:57.362Z,264.38
2022-10-17T12:31:57.308Z,264.38
2022-10-17T12:33:06.553Z,258.75
2022-10-17T12:33:57.661Z,258.75
2022-10-17T12:34:57.177Z,258.75
2022-10-17T12:35:57.149Z,258.75
2022-10-17T12:36:57.095Z,253.13
2022-10-17T12:37:58.766Z,253.13
2022-10-17T12:38:57.006Z,253.13
2022-10-17T12:39:56.961Z,253.13
2022-10-17T12:40:56.930Z,247.50
2022-10-17T12:41:56.913Z,253.13
2022-10-17T12:42:56.834Z,247.50
2022-10-17T12:43:56.791Z,247.50
2022-10-17T12:44:56.747Z,247.50
2022-10-17T12:45:56.716Z,241.88
2022-10-17T12:46:56.670Z,241.88
2022-10-17T12:47:56.619Z,241.88
2022-10-17T12:48:56.576Z,241.88
2022-10-17T12:49:56.864Z,241.88
2022-10-17T12:50:58.339Z,241.88